Time;durP1;ratioP1;P1;durP2;ratioP2;P2;SDS_P1;SDS_P2;PMS_P1;PMS_P2;Temp;Humidity;BMP_temperature;BMP_pressure;BME280_temperature;BME280_humidity;BME280_pressure;Samples;Min_cycle;Max_cycle;Signal;HPM_P1;HPM_P2
2021/12/17 00:03:09;;;;;;;6.45;2.90;;;15.30;99.90;;;;;;5074363;28;20382;-61
2021/12/17 00:05:19;;;;;;;5.00;2.35;;;15.10;99.90;;;;;;5074744;28;20040;-61
2021/12/17 00:07:45;;;;;;;5.65;2.60;;;15.30;99.90;;;;;;5074008;28;20032;-61
2021/12/17 00:10:13;;;;;;;5.00;2.40;;;15.40;99.90;;;;;;5074133;28;20055;-61
2021/12/17 00:12:39;;;;;;;5.25;2.70;;;15.20;99.90;;;;;;5074769;28;20051;-62
2021/12/17 00:15:06;;;;;;;5.28;2.30;;;15.20;99.90;;;;;;5074624;28;20041;-61
2021/12/17 00:17:36;;;;;;;4.60;2.28;;;15.10;99.90;;;;;;5074435;28;20391;-62
2021/12/17 00:52:29;;;;;;;5.75;2.55;;;15.10;99.90;;;;;;5073262;28;20048;-65
2021/12/17 00:54:55;;;;;;;4.57;2.20;;;15.20;99.90;;;;;;5073420;28;20056;-65
2021/12/17 00:57:24;;;;;;;5.20;2.40;;;15.20;99.90;;;;;;5073405;28;20052;-66
2021/12/17 00:59:51;;;;;;;4.90;2.28;;;15.20;99.90;;;;;;5072768;28;20046;-65
2021/12/17 01:02:19;;;;;;;5.72;2.50;;;14.90;99.90;;;;;;5056057;28;20420;-65
2021/12/17 01:04:54;;;;;;;5.38;2.63;;;15.10;99.90;;;;;;5072689;28;20119;-65
2021/12/17 01:07:22;;;;;;;5.00;2.55;;;15.10;99.90;;;;;;5074044;28;20102;-65
2021/12/17 01:09:48;;;;;;;4.97;2.33;;;15.20;99.90;;;;;;5073693;28;20044;-65
2021/12/17 01:12:13;;;;;;;5.80;2.70;;;15.20;99.90;;;;;;5073320;28;20040;-66
2021/12/17 01:14:40;;;;;;;5.32;2.20;;;14.90;99.90;;;;;;5053773;28;20086;-66
2021/12/17 01:17:06;;;;;;;4.78;2.53;;;15.10;99.90;;;;;;5066658;28;20041;-65
2021/12/17 01:24:55;;;;;;;5.50;2.45;;;15.20;99.90;;;;;;5054756;28;20464;-61
2021/12/17 01:35:35;;;;;;;4.80;2.35;;;15.10;99.90;;;;;;5072146;28;20052;-61
2021/12/17 01:43:21;;;;;;;5.45;2.28;;;15.00;99.90;;;;;;5073295;28;20051;-61
2021/12/17 01:45:47;;;;;;;5.65;2.63;;;15.20;99.90;;;;;;5055052;28;20048;-61
2021/12/17 01:48:17;;;;;;;4.38;2.03;;;15.20;99.90;;;;;;5053301;28;20045;-62
2021/12/17 02:01:30;;;;;;;5.63;2.30;;;15.00;99.90;;;;;;5073007;28;20390;-61
2021/12/17 02:03:56;;;;;;;5.07;2.30;;;15.10;99.90;;;;;;5076322;28;20086;-61
2021/12/17 02:06:23;;;;;;;4.32;2.10;;;15.10;99.90;;;;;;5076546;28;20052;-62
2021/12/17 02:08:50;;;;;;;4.30;1.90;;;15.10;99.90;;;;;;5074894;28;20041;-61
2021/12/17 02:30:27;;;;;;;3.40;1.90;;;15.10;99.90;;;;;;5075854;28;20402;-61
2021/12/17 02:32:37;;;;;;;4.50;1.90;;;14.90;99.90;;;;;;5075587;28;20044;-61
2021/12/17 02:37:33;;;;;;;4.47;1.90;;;15.00;99.90;;;;;;5076102;28;20040;-61
2021/12/17 02:40:17;;;;;;;3.92;1.83;;;15.00;99.90;;;;;;5076296;28;20076;-66
2021/12/17 02:45:32;;;;;;;3.72;2.00;;;15.10;99.90;;;;;;5076199;28;20056;-65
2021/12/17 02:48:18;;;;;;;4.40;1.80;;;15.20;99.90;;;;;;5075948;28;20048;-66
2021/12/17 02:50:49;;;;;;;3.47;1.60;;;15.20;99.90;;;;;;5058564;28;20490;-64
2021/12/17 02:53:15;;;;;;;6.15;2.05;;;15.00;99.90;;;;;;5076191;28;20048;-65
2021/12/17 02:55:46;;;;;;;3.47;1.83;;;15.10;99.90;;;;;;5075457;28;20052;-65
2021/12/17 02:58:12;;;;;;;4.00;1.90;;;15.20;99.90;;;;;;5074237;28;20060;-66
2021/12/17 03:00:39;;;;;;;2.65;1.50;;;15.20;99.90;;;;;;5075327;28;20049;-66
2021/12/17 03:03:08;;;;;;;2.92;1.50;;;15.10;99.90;;;;;;5075924;28;20055;-66
2021/12/17 03:05:35;;;;;;;2.92;1.50;;;15.10;99.90;;;;;;5074292;28;20120;-66
2021/12/17 03:08:01;;;;;;;3.85;1.73;;;15.20;99.90;;;;;;5075382;28;20048;-66
2021/12/17 03:10:26;;;;;;;3.78;1.60;;;15.00;99.90;;;;;;5075705;28;20522;-65
2021/12/17 03:12:58;;;;;;;3.13;1.50;;;14.80;99.90;;;;;;5075262;28;20073;-65
2021/12/17 03:15:45;;;;;;;7.20;2.95;;;14.90;99.90;;;;;;5074711;28;20055;-64
2021/12/17 03:23:40;;;;;;;2.28;1.20;;;15.30;99.90;;;;;;5075092;28;20056;-65
2021/12/17 03:26:25;;;;;;;3.63;1.95;;;14.90;99.90;;;;;;5075462;28;20048;-68
2021/12/17 03:29:03;;;;;;;3.53;1.30;;;15.30;99.90;;;;;;5073354;28;20086;-65
2021/12/17 03:31:29;;;;;;;3.97;2.08;;;;;;;;;;5075012;28;20068;-65
2021/12/17 03:34:02;;;;;;;2.67;1.40;;;15.10;99.90;;;;;;5075403;28;20087;-66
2021/12/17 03:36:28;;;;;;;2.97;1.30;;;15.00;99.90;;;;;;5074965;28;20123;-66
2021/12/17 03:38:54;;;;;;;2.10;1.10;;;14.90;99.90;;;;;;5075132;28;20056;-65
2021/12/17 03:41:23;;;;;;;2.78;1.35;;;14.80;99.90;;;;;;5074552;28;20069;-61
2021/12/17 03:43:50;;;;;;;2.50;1.23;;;15.20;99.90;;;;;;5075158;28;20117;-61
2021/12/17 03:46:16;;;;;;;2.05;1.30;;;15.20;99.90;;;;;;5075887;28;20060;-61
2021/12/17 03:48:42;;;;;;;3.00;1.40;;;15.00;99.90;;;;;;5075259;28;20044;-61
2021/12/17 03:51:13;;;;;;;3.10;1.20;;;15.00;99.90;;;;;;5075066;28;20058;-62
2021/12/17 03:53:40;;;;;;;2.40;1.10;;;15.20;99.90;;;;;;5075215;28;20049;-61
2021/12/17 03:56:06;;;;;;;2.38;1.02;;;14.70;99.90;;;;;;5074555;28;20044;-61
2021/12/17 03:58:32;;;;;;;2.42;1.45;;;15.20;99.90;;;;;;5073730;28;20053;-61
2021/12/17 04:00:58;;;;;;;2.45;1.23;;;15.40;99.90;;;;;;5073729;28;20364;-62
2021/12/17 04:03:23;;;;;;;2.53;1.30;;;15.00;99.90;;;;;;5074837;28;20452;-61
2021/12/17 04:05:49;;;;;;;2.55;1.20;;;15.00;99.90;;;;;;5074198;28;20067;-60
2021/12/17 04:08:15;;;;;;;2.50;1.10;;;15.20;99.90;;;;;;5074810;28;20040;-61
2021/12/17 04:10:45;;;;;;;1.17;0.82;;;;;;;;;;5074698;28;21584;-60
2021/12/17 04:13:26;;;;;;;3.00;1.20;;;15.00;99.90;;;;;;5074423;28;20198;-61
2021/12/17 04:15:57;;;;;;;1.83;1.10;;;15.10;99.90;;;;;;5074580;28;20123;-61
2021/12/17 04:18:23;;;;;;;2.40;1.10;;;15.20;99.90;;;;;;5074821;28;20108;-61
2021/12/17 04:20:49;;;;;;;2.42;1.40;;;15.00;99.90;;;;;;5074125;28;20048;-65
2021/12/17 04:23:15;;;;;;;3.50;1.20;;;15.20;99.90;;;;;;5073261;28;20037;-65
2021/12/17 04:25:41;;;;;;;3.25;1.20;;;15.20;99.90;;;;;;5072924;28;20044;-65
2021/12/17 04:28:07;;;;;;;1.75;1.00;;;15.00;99.90;;;;;;5074084;28;20036;-65
2021/12/17 04:30:33;;;;;;;3.42;1.45;;;;;;;;;;5056052;28;20048;-65
2021/12/17 04:32:59;;;;;;;1.73;1.05;;;15.30;99.90;;;;;;5073959;28;20082;-65
2021/12/17 04:35:24;;;;;;;2.35;1.25;;;15.20;99.90;;;;;;5060015;28;20119;-66
2021/12/17 04:37:51;;;;;;;2.88;1.40;;;15.00;99.90;;;;;;5074228;28;20036;-66
2021/12/17 04:40:19;;;;;;;2.85;1.30;;;15.20;99.90;;;;;;5074224;28;20052;-65
2021/12/17 04:45:13;;;;;;;1.80;1.20;;;15.00;99.90;;;;;;5073813;28;20052;-65
2021/12/17 04:58:37;;;;;;;2.38;1.30;;;14.80;99.90;;;;;;5074007;28;20052;-65
2021/12/17 05:01:09;;;;;;;2.53;1.17;;;15.00;99.90;;;;;;5073885;28;20040;-65
2021/12/17 05:03:35;;;;;;;2.60;1.25;;;15.00;99.90;;;;;;5073995;28;20078;-65
2021/12/17 05:06:00;;;;;;;2.75;1.35;;;14.70;99.90;;;;;;5073091;28;20550;-65
2021/12/17 05:08:28;;;;;;;2.70;1.13;;;15.10;99.90;;;;;;5073171;28;20045;-65
2021/12/17 05:21:26;;;;;;;2.58;1.40;;;15.10;99.90;;;;;;5073478;28;20048;-65
2021/12/17 05:23:52;;;;;;;3.53;1.50;;;15.10;99.90;;;;;;5073542;28;20059;-65
2021/12/17 05:26:19;;;;;;;2.63;1.40;;;;;;;;;;5072833;28;20045;-65
2021/12/17 05:28:46;;;;;;;2.65;1.40;;;15.30;99.90;;;;;;5072595;28;20055;-66
2021/12/17 05:31:12;;;;;;;2.85;1.40;;;15.30;99.90;;;;;;5073471;28;20040;-65
2021/12/17 05:33:38;;;;;;;2.58;1.27;;;15.20;99.90;;;;;;5073172;28;20047;-65
2021/12/17 05:36:04;;;;;;;2.10;1.20;;;14.80;99.90;;;;;;5073194;28;20119;-65
2021/12/17 05:38:30;;;;;;;2.70;1.33;;;15.00;99.90;;;;;;5072843;28;20445;-65
2021/12/17 05:40:56;;;;;;;2.42;1.30;;;14.80;99.90;;;;;;5073366;28;20507;-65
2021/12/17 05:43:22;;;;;;;2.60;1.20;;;14.80;99.90;;;;;;5073241;28;20044;-64
2021/12/17 05:48:15;;;;;;;1.95;1.17;;;15.10;99.90;;;;;;5072733;28;20440;-66
2021/12/17 05:50:41;;;;;;;1.75;0.95;;;15.00;99.90;;;;;;5072942;28;20049;-65
2021/12/17 05:53:08;;;;;;;2.10;1.17;;;15.10;99.90;;;;;;5073161;28;20119;-65
2021/12/17 05:55:34;;;;;;;2.40;1.35;;;15.10;99.90;;;;;;5072963;28;20124;-65
2021/12/17 05:58:00;;;;;;;1.70;1.10;;;15.20;99.90;;;;;;5072877;28;20078;-65
2021/12/17 06:00:29;;;;;;;2.17;1.17;;;15.30;99.90;;;;;;5071533;28;20044;-66
2021/12/17 06:02:55;;;;;;;3.25;1.50;;;;;;;;;;5072941;28;20448;-65
2021/12/17 06:05:21;;;;;;;1.90;1.00;;;15.20;99.90;;;;;;5072612;28;20033;-66
2021/12/17 06:07:47;;;;;;;2.60;1.30;;;15.40;99.90;;;;;;5072710;28;20383;-65
2021/12/17 06:10:13;;;;;;;2.67;1.23;;;15.10;99.90;;;;;;5068468;28;20044;-61
2021/12/17 06:12:39;;;;;;;2.05;1.20;;;15.30;99.90;;;;;;5071918;28;20040;-61
2021/12/17 06:15:06;;;;;;;1.88;1.13;;;14.90;99.90;;;;;;5072569;28;20178;-61
2021/12/17 06:17:32;;;;;;;2.05;1.23;;;15.10;99.90;;;;;;5072595;28;20040;-61
2021/12/17 06:19:58;;;;;;;3.13;1.52;;;15.00;99.90;;;;;;5072412;28;20047;-61
2021/12/17 06:22:24;;;;;;;3.10;1.58;;;15.20;99.90;;;;;;5072858;28;20047;-61
2021/12/17 06:24:49;;;;;;;2.53;1.25;;;15.00;99.90;;;;;;5072583;28;20126;-62
2021/12/17 06:27:16;;;;;;;2.55;1.23;;;15.10;99.90;;;;;;5072888;28;20040;-61
2021/12/17 06:29:42;;;;;;;2.97;1.50;;;14.90;99.90;;;;;;5072664;28;20117;-62
2021/12/17 06:32:08;;;;;;;2.60;1.33;;;;;;;;;;5071402;28;20087;-63
2021/12/17 06:34:34;;;;;;;3.03;1.70;;;15.10;99.90;;;;;;5063659;28;20047;-61
2021/12/17 06:37:00;;;;;;;2.55;1.30;;;;;;;;;;5072489;28;20048;-62
2021/12/17 06:39:26;;;;;;;2.58;1.30;;;15.10;99.90;;;;;;5052935;28;20037;-61
2021/12/17 06:41:52;;;;;;;2.80;1.40;;;14.90;99.90;;;;;;5065286;28;20105;-62
2021/12/17 06:44:22;;;;;;;2.47;1.23;;;15.10;99.90;;;;;;5071943;28;20044;-61
2021/12/17 06:47:00;;;;;;;3.05;1.50;;;15.00;99.90;;;;;;5054498;28;20092;-61
2021/12/17 06:49:42;;;;;;;2.20;1.33;;;15.00;99.90;;;;;;5074668;28;20059;-61
2021/12/17 07:10:59;;;;;;;3.30;1.88;;;15.00;99.90;;;;;;4990385;28;20045;-61
2021/12/17 07:32:37;;;;;;;3.05;1.55;;;15.10;99.90;;;;;;4974547;28;20055;-65
2021/12/17 07:40:10;;;;;;;3.17;1.60;;;15.10;99.90;;;;;;4974678;28;20055;-67
2021/12/17 07:42:36;;;;;;;4.10;1.80;;;15.10;99.90;;;;;;5026693;28;20064;-63
2021/12/17 07:45:02;;;;;;;2.78;1.48;;;15.10;99.90;;;;;;5075216;28;20044;-62
2021/12/17 07:47:28;;;;;;;3.25;1.58;;;15.40;99.90;;;;;;5073944;28;20368;-64
2021/12/17 07:49:53;;;;;;;3.00;1.60;;;15.10;99.90;;;;;;5074954;28;20051;-66
2021/12/17 07:52:19;;;;;;;3.65;1.80;;;15.30;99.90;;;;;;5074437;28;20473;-66
2021/12/17 07:54:45;;;;;;;3.92;1.70;;;15.10;99.90;;;;;;5074802;28;20122;-66
2021/12/17 07:57:11;;;;;;;3.85;1.75;;;15.10;99.90;;;;;;5074394;28;20088;-61
2021/12/17 07:59:37;;;;;;;3.72;1.70;;;15.30;99.90;;;;;;5074887;28;20494;-67
2021/12/17 08:02:03;;;;;;;4.07;2.00;;;15.50;99.90;;;;;;5074640;28;20037;-65
2021/12/17 08:04:29;;;;;;;4.00;2.03;;;15.00;99.90;;;;;;5074779;28;20047;-66
2021/12/17 08:06:55;;;;;;;4.47;2.17;;;15.20;99.90;;;;;;5074893;28;20398;-67
2021/12/17 08:09:20;;;;;;;4.75;2.35;;;15.20;99.90;;;;;;5073764;28;20098;-64
2021/12/17 08:11:54;;;;;;;5.57;2.20;;;15.40;99.90;;;;;;5071826;28;20045;-67
2021/12/17 08:14:20;;;;;;;6.22;3.03;;;15.10;99.90;;;;;;5073451;28;20054;-67
2021/12/17 08:16:59;;;;;;;5.55;3.00;;;15.30;99.90;;;;;;5073930;28;20044;-66
2021/12/17 08:29:55;;;;;;;6.70;2.75;;;15.30;99.90;;;;;;5070002;28;20048;-61
2021/12/17 08:32:21;;;;;;;5.88;2.80;;;15.40;99.90;;;;;;5071906;28;20147;-61
2021/12/17 08:34:47;;;;;;;6.10;2.63;;;15.20;99.90;;;;;;5074133;28;20076;-61
2021/12/17 08:37:13;;;;;;;5.68;2.80;;;15.40;99.90;;;;;;5072513;28;20044;-63
2021/12/17 08:39:39;;;;;;;6.05;2.72;;;15.50;99.90;;;;;;5072707;28;20162;-61
2021/12/17 08:42:06;;;;;;;4.85;2.60;;;15.20;99.90;;;;;;5072004;28;20040;-61
2021/12/17 08:44:32;;;;;;;5.63;2.70;;;15.30;99.90;;;;;;5073897;28;20449;-61
2021/12/17 08:46:58;;;;;;;7.20;3.35;;;15.40;99.90;;;;;;5072437;28;20120;-61
2021/12/17 08:49:24;;;;;;;6.03;2.85;;;;;;;;;;5054302;28;20045;-63
2021/12/17 08:51:50;;;;;;;5.70;2.83;;;15.30;99.90;;;;;;5070697;28;20037;-62
2021/12/17 08:54:15;;;;;;;5.90;3.05;;;15.30;99.90;;;;;;5071631;28;20505;-61
2021/12/17 08:56:46;;;;;;;7.72;3.40;;;15.50;99.90;;;;;;5071983;28;20048;-63
2021/12/17 08:59:14;;;;;;;6.10;3.28;;;15.40;99.90;;;;;;5072566;28;20044;-64
2021/12/17 09:01:40;;;;;;;6.80;3.42;;;15.60;99.90;;;;;;5073176;28;20229;-64
2021/12/17 09:04:06;;;;;;;6.82;3.50;;;;;;;;;;5070694;28;20123;-64
2021/12/17 09:06:32;;;;;;;7.13;3.47;;;15.40;99.90;;;;;;5073078;28;20402;-64
2021/12/17 09:08:58;;;;;;;6.47;2.95;;;15.20;99.90;;;;;;5072417;28;20043;-68
2021/12/17 09:11:26;;;;;;;7.25;3.42;;;15.30;99.90;;;;;;5071644;28;20060;-61
2021/12/17 09:13:52;;;;;;;8.88;3.45;;;15.40;99.90;;;;;;5071267;28;20045;-66
2021/12/17 09:16:20;;;;;;;7.53;3.38;;;15.30;99.90;;;;;;5050921;28;20044;-62
2021/12/17 09:18:50;;;;;;;7.65;3.95;;;15.10;99.90;;;;;;5072880;28;20486;-63
2021/12/17 09:21:16;;;;;;;6.68;3.40;;;15.20;99.90;;;;;;5054542;28;20486;-69
2021/12/17 09:23:42;;;;;;;6.90;3.50;;;15.20;99.90;;;;;;5033774;28;20044;-68
2021/12/17 09:26:10;;;;;;;7.55;3.70;;;15.30;99.90;;;;;;5072758;28;20115;-68
2021/12/17 09:28:36;;;;;;;6.47;3.80;;;;;;;;;;5072849;28;20040;-70
2021/12/17 09:31:02;;;;;;;7.85;3.53;;;15.30;99.90;;;;;;5071574;28;20120;-67
2021/12/17 09:33:27;;;;;;;9.05;4.28;;;15.40;99.90;;;;;;5062321;28;20076;-66
2021/12/17 09:35:53;;;;;;;9.20;3.80;;;15.30;99.90;;;;;;5048779;28;20143;-61
2021/12/17 09:38:19;;;;;;;7.05;3.83;;;15.30;99.90;;;;;;5071281;28;20055;-61
2021/12/17 09:40:45;;;;;;;6.68;3.40;;;15.20;99.90;;;;;;5055346;28;20367;-61
2021/12/17 09:43:11;;;;;;;10.73;4.10;;;15.60;99.90;;;;;;5053702;28;20048;-62
2021/12/17 09:45:37;;;;;;;7.47;3.70;;;15.20;99.90;;;;;;5072188;28;20379;-61
2021/12/17 09:48:03;;;;;;;8.65;3.60;;;15.50;99.90;;;;;;5054898;28;20117;-61
2021/12/17 09:50:29;;;;;;;9.05;3.72;;;;;;;;;;5067683;28;20048;-67
2021/12/17 09:52:58;;;;;;;7.32;3.35;;;;;;;;;;5065467;28;20048;-63
2021/12/17 09:55:24;;;;;;;7.03;3.55;;;15.20;99.90;;;;;;5063987;28;20578;-61
2021/12/17 09:57:51;;;;;;;8.10;3.60;;;;;;;;;;5065569;28;20099;-64
2021/12/17 10:00:20;;;;;;;7.05;3.30;;;;;;;;;;5064851;28;20123;-61
2021/12/17 10:02:46;;;;;;;7.85;3.42;;;15.30;99.90;;;;;;5063886;28;20041;-63
2021/12/17 10:05:14;;;;;;;6.30;2.97;;;15.30;99.90;;;;;;5063868;28;20132;-61
2021/12/17 10:07:41;;;;;;;7.28;3.20;;;15.40;99.90;;;;;;5062986;28;20103;-61
2021/12/17 10:10:07;;;;;;;7.13;3.28;;;15.20;99.90;;;;;;5026593;28;20045;-63
2021/12/17 10:12:34;;;;;;;6.75;2.75;;;15.50;99.90;;;;;;5068124;28;20115;-62
2021/12/17 10:15:07;;;;;;;6.03;3.22;;;15.40;99.90;;;;;;5070978;28;20120;-64
2021/12/17 10:17:37;;;;;;;5.70;2.90;;;15.30;99.90;;;;;;5071182;28;20045;-66
2021/12/17 10:20:07;;;;;;;5.35;2.50;;;15.40;99.90;;;;;;5072680;28;20045;-61
2021/12/17 10:22:33;;;;;;;6.05;2.45;;;15.30;99.90;;;;;;5071601;28;20072;-61
2021/12/17 10:25:05;;;;;;;6.45;2.65;;;15.30;99.90;;;;;;5076109;28;20044;-62
2021/12/17 10:27:33;;;;;;;5.68;2.63;;;15.20;99.90;;;;;;5075500;28;20117;-67
2021/12/17 10:29:59;;;;;;;5.63;2.70;;;15.40;99.90;;;;;;5059198;28;20048;-61
2021/12/17 10:32:26;;;;;;;5.30;2.15;;;15.20;99.90;;;;;;5052372;28;20274;-62
2021/12/17 10:35:03;;;;;;;5.60;2.30;;;15.10;99.90;;;;;;5075812;28;20409;-62
2021/12/17 10:37:35;;;;;;;5.22;2.40;;;14.90;99.90;;;;;;5074794;28;20040;-61
2021/12/17 10:40:14;;;;;;;3.33;1.77;;;15.40;99.90;;;;;;5076220;28;20537;-70
2021/12/17 10:42:48;;;;;;;6.32;2.08;;;;;;;;;;5073808;28;20049;-63
2021/12/17 10:45:23;;;;;;;3.92;1.75;;;15.50;99.90;;;;;;5076261;28;20044;-61
2021/12/17 10:51:13;;;;;;;3.90;1.88;;;15.30;99.90;;;;;;5075002;28;20090;-62
2021/12/17 10:53:51;;;;;;;3.95;1.50;;;15.50;99.90;;;;;;5075094;28;20049;-61
2021/12/17 10:56:17;;;;;;;4.75;1.92;;;15.60;99.90;;;;;;5067372;28;20049;-61
2021/12/17 10:59:16;;;;;;;3.78;1.48;;;15.50;99.90;;;;;;5075245;28;20052;-62
2021/12/17 11:01:54;;;;;;;3.70;1.83;;;15.40;99.90;;;;;;4994727;28;20054;-62
2021/12/17 11:04:23;;;;;;;5.18;2.00;;;15.30;99.90;;;;;;4975869;28;20092;-61
2021/12/17 11:07:05;;;;;;;3.17;1.38;;;15.50;99.90;;;;;;4994307;28;20389;-61
2021/12/17 11:09:41;;;;;;;5.10;1.92;;;15.20;99.90;;;;;;4994045;28;20100;-61
2021/12/17 11:12:28;;;;;;;3.83;1.35;;;15.30;99.90;;;;;;4993736;28;20054;-62
2021/12/17 11:15:12;;;;;;;2.70;1.30;;;15.30;99.90;;;;;;4994103;28;20132;-63
2021/12/17 11:17:38;;;;;;;;;;;15.20;99.90;;;;;;4994436;28;20051;-61
2021/12/17 11:20:11;;;;;;;4.15;1.60;;;15.20;99.90;;;;;;4994265;28;20268;-61
2021/12/17 11:22:38;;;;;;;2.83;1.20;;;15.40;99.90;;;;;;4977057;28;20065;-61
2021/12/17 11:25:04;;;;;;;2.47;1.15;;;15.40;99.90;;;;;;4994329;28;20437;-63
2021/12/17 11:27:30;;;;;;;2.03;1.10;;;15.40;99.90;;;;;;4988720;28;20074;-61
2021/12/17 11:29:56;;;;;;;4.20;1.60;;;15.60;99.90;;;;;;4974660;28;20070;-62
2021/12/17 11:32:22;;;;;;;3.65;1.05;;;15.20;99.90;;;;;;4981738;28;20058;-68
2021/12/17 11:34:48;;;;;;;3.10;1.20;;;15.50;99.90;;;;;;4992538;28;20046;-67
2021/12/17 11:37:13;;;;;;;4.20;1.42;;;15.40;99.90;;;;;;5030684;28;20478;-66
2021/12/17 11:39:45;;;;;;;3.72;1.38;;;15.60;99.90;;;;;;5073238;28;20040;-66
2021/12/17 11:42:29;;;;;;;3.03;1.15;;;15.40;99.90;;;;;;5057697;28;20049;-66
2021/12/17 11:47:41;;;;;;;3.03;1.00;;;15.20;99.90;;;;;;5068997;28;20046;-66
2021/12/17 11:50:08;;;;;;;1.98;0.95;;;15.40;99.90;;;;;;5075276;28;20056;-66
2021/12/17 11:52:42;;;;;;;3.20;1.08;;;15.40;99.90;;;;;;5070247;28;20120;-68
2021/12/17 11:55:20;;;;;;;3.72;1.20;;;15.60;99.90;;;;;;5073797;28;20127;-67
2021/12/17 11:57:50;;;;;;;3.45;1.50;;;15.30;99.90;;;;;;5072120;28;20120;-62
2021/12/17 12:00:18;;;;;;;3.40;1.35;;;15.30;99.90;;;;;;5073156;28;20129;-62
2021/12/17 12:02:47;;;;;;;3.28;1.17;;;;;;;;;;5075039;28;20040;-61
2021/12/17 12:05:35;;;;;;;3.22;1.13;;;15.10;99.90;;;;;;5073873;28;20051;-67
2021/12/17 12:08:23;;;;;;;2.92;1.13;;;15.30;99.90;;;;;;5072977;28;20044;-65
2021/12/17 12:11:08;;;;;;;2.83;1.23;;;15.20;99.90;;;;;;5054995;28;20045;-68
2021/12/17 12:13:38;;;;;;;4.03;1.10;;;15.30;99.90;;;;;;5054404;28;20045;-68
2021/12/17 12:16:05;;;;;;;3.60;1.35;;;15.30;99.90;;;;;;5074327;28;20087;-68
2021/12/17 12:18:45;;;;;;;4.00;1.52;;;15.30;99.90;;;;;;5073574;28;20044;-66
2021/12/17 12:21:16;;;;;;;2.33;1.20;;;15.10;99.90;;;;;;5073893;28;20040;-67
2021/12/17 12:23:44;;;;;;;2.20;1.02;;;15.10;99.90;;;;;;5074554;28;20367;-68
2021/12/17 12:26:12;;;;;;;2.83;1.38;;;15.40;99.90;;;;;;5055787;28;20119;-67
2021/12/17 12:28:49;;;;;;;2.38;1.10;;;15.30;99.90;;;;;;5056689;28;20095;-68
2021/12/17 12:31:24;;;;;;;3.13;1.45;;;15.50;99.90;;;;;;5073243;28;20040;-69
2021/12/17 12:34:02;;;;;;;3.92;1.58;;;15.20;99.90;;;;;;5073093;28;20045;-67
2021/12/17 12:36:44;;;;;;;3.22;1.17;;;15.30;99.90;;;;;;5074291;28;20045;-68
2021/12/17 12:39:38;;;;;;;2.50;1.30;;;15.10;99.90;;;;;;5054439;28;20446;-67
2021/12/17 12:42:11;;;;;;;3.58;1.20;;;15.30;99.90;;;;;;5071833;28;20044;-65
2021/12/17 12:44:37;;;;;;;;;;;;;;;;;;5056431;28;20055;-62
2021/12/17 12:47:03;;;;;;;5.18;1.50;;;;;;;;;;5070193;28;19916;-63
2021/12/17 12:49:49;;;;;;;2.38;1.25;;;;;;;;;;5072534;28;20098;-61
2021/12/17 12:52:25;;;;;;;3.90;1.33;;;15.50;99.90;;;;;;5073905;28;20397;-64
2021/12/17 12:54:51;;;;;;;3.08;1.65;;;15.50;99.90;;;;;;5072266;28;20082;-61
2021/12/17 12:57:45;;;;;;;4.05;1.95;;;15.70;99.90;;;;;;5071322;28;20063;-61
2021/12/17 13:00:51;;;;;;;2.65;1.67;;;15.40;99.90;;;;;;5011314;28;20050;-61
2021/12/17 13:03:18;;;;;;;3.33;1.60;;;15.40;99.90;;;;;;4943869;29;20051;-61
2021/12/17 13:05:47;;;;;;;5.00;1.75;;;15.70;99.90;;;;;;4918747;29;20070;-62
2021/12/17 13:08:14;;;;;;;4.35;1.80;;;15.50;99.90;;;;;;4945613;29;20452;-61
2021/12/17 13:10:44;;;;;;;3.58;1.30;;;15.30;99.90;;;;;;4953447;29;20062;-60
2021/12/17 13:23:50;;;;;;;3.05;1.50;;;15.50;99.90;;;;;;4952155;29;20043;-61
2021/12/17 13:26:16;;;;;;;3.28;1.70;;;15.40;99.90;;;;;;4953309;29;20121;-61
2021/12/17 13:28:59;;;;;;;4.18;1.40;;;15.40;99.90;;;;;;4948352;29;20047;-62
2021/12/17 13:31:39;;;;;;;4.22;1.73;;;15.30;99.90;;;;;;4947963;29;20059;-61
2021/12/17 13:34:24;;;;;;;3.53;1.60;;;15.30;99.90;;;;;;4940113;29;20094;-61
2021/12/17 13:37:01;;;;;;;4.75;1.80;;;15.50;99.90;;;;;;4993928;28;20052;-61
2021/12/17 13:39:28;;;;;;;3.53;1.98;;;;;;;;;;5062781;28;20067;-66
2021/12/17 13:41:54;;;;;;;3.47;1.77;;;15.70;99.90;;;;;;5052483;28;20390;-67
2021/12/17 13:44:33;;;;;;;3.00;1.50;;;15.30;99.90;;;;;;5068313;28;20058;-65
2021/12/17 13:47:16;;;;;;;4.03;1.50;;;15.50;99.90;;;;;;5071737;28;20043;-65
2021/12/17 13:49:44;;;;;;;4.10;1.70;;;;;;;;;;5058141;28;20129;-63
2021/12/17 13:52:11;;;;;;;3.63;1.42;;;;;;;;;;5072843;28;20041;-63
2021/12/17 13:54:37;;;;;;;2.55;1.55;;;15.50;99.90;;;;;;5072755;28;20094;-60
2021/12/17 13:57:04;;;;;;;3.28;1.58;;;15.50;99.90;;;;;;5072156;28;20057;-61
2021/12/17 13:59:31;;;;;;;2.67;1.45;;;15.80;99.90;;;;;;5074178;28;20060;-62
2021/12/17 14:01:57;;;;;;;4.28;1.92;;;15.20;99.90;;;;;;5075521;28;20056;-63
2021/12/17 14:04:24;;;;;;;3.28;1.60;;;15.30;99.90;;;;;;5075685;28;20036;-61
2021/12/17 14:06:53;;;;;;;2.83;1.50;;;15.50;99.90;;;;;;5076819;28;20048;-66
2021/12/17 14:09:23;;;;;;;5.40;1.65;;;15.30;99.90;;;;;;5073778;28;20084;-66
2021/12/17 14:11:49;;;;;;;2.97;1.52;;;15.80;99.90;;;;;;5058912;28;20052;-65
2021/12/17 14:14:25;;;;;;;2.83;1.70;;;15.50;99.90;;;;;;5041668;28;20052;-62
2021/12/17 14:17:02;;;;;;;2.85;1.60;;;15.60;99.90;;;;;;5076729;28;20072;-69
2021/12/17 14:19:37;;;;;;;3.63;1.80;;;;;;;;;;5073769;28;20490;-70
2021/12/17 14:22:18;;;;;;;4.65;2.10;;;15.50;99.90;;;;;;5076382;28;20448;-69
2021/12/17 14:24:44;;;;;;;3.63;1.80;;;15.30;99.90;;;;;;5075763;28;20078;-69
2021/12/17 14:27:10;;;;;;;3.67;1.50;;;;;;;;;;5076646;28;20470;-69
2021/12/17 14:29:38;;;;;;;3.30;1.70;;;;;;;;;;5057310;28;20048;-67
2021/12/17 14:32:04;;;;;;;3.72;1.95;;;15.70;99.90;;;;;;5073977;28;20052;-69
2021/12/17 14:34:40;;;;;;;3.65;1.60;;;15.50;99.90;;;;;;5074362;28;20101;-62
2021/12/17 14:37:05;;;;;;;4.25;1.92;;;15.60;99.90;;;;;;5076136;28;20040;-69
2021/12/17 14:39:34;;;;;;;8.65;2.72;;;15.30;99.90;;;;;;5075313;28;20045;-68
2021/12/17 14:42:03;;;;;;;4.88;1.80;;;15.50;99.90;;;;;;5074004;28;20060;-69
2021/12/17 14:44:37;;;;;;;5.18;2.15;;;15.60;99.90;;;;;;5076097;28;20051;-69
2021/12/17 15:00:45;;;;;;;5.25;2.53;;;15.50;99.90;;;;;;5075829;28;20056;-66
2021/12/17 15:05:49;;;;;;;4.72;2.60;;;15.40;99.90;;;;;;5075947;28;20054;-67
2021/12/17 15:08:15;;;;;;;3.75;1.70;;;15.30;99.90;;;;;;5074925;28;20377;-66
2021/12/17 15:10:41;;;;;;;4.03;1.70;;;15.40;99.90;;;;;;5040041;28;20128;-66
2021/12/17 15:13:06;;;;;;;3.80;2.03;;;15.30;99.90;;;;;;5056608;28;20109;-67
2021/12/17 15:15:36;;;;;;;3.70;1.90;;;15.40;99.90;;;;;;5075439;28;20113;-67
2021/12/17 15:18:13;;;;;;;4.72;2.00;;;15.50;99.90;;;;;;5055411;28;20080;-66
2021/12/17 15:20:39;;;;;;;3.55;2.03;;;15.20;99.90;;;;;;5075073;28;20075;-67
2021/12/17 15:23:05;;;;;;;4.43;2.15;;;;;;;;;;5073530;28;20068;-66
2021/12/17 15:25:32;;;;;;;6.00;2.22;;;15.20;99.90;;;;;;5074412;28;20394;-67
2021/12/17 15:27:57;;;;;;;7.05;2.20;;;15.50;99.90;;;;;;5075309;28;20079;-67
2021/12/17 15:30:31;;;;;;;4.32;2.15;;;14.90;99.90;;;;;;5073323;28;20088;-67
2021/12/17 15:32:58;;;;;;;4.18;2.17;;;;;;;;;;5073648;28;20490;-68
2021/12/17 15:35:24;;;;;;;4.57;2.25;;;15.30;99.90;;;;;;5075293;28;20109;-62
2021/12/17 15:37:51;;;;;;;4.75;2.17;;;15.30;99.90;;;;;;5074682;28;20535;-61
2021/12/17 15:40:17;;;;;;;5.10;2.33;;;15.40;99.90;;;;;;5073779;28;20095;-64
2021/12/17 15:42:43;;;;;;;6.85;2.45;;;15.40;99.90;;;;;;5073847;28;20037;-66
2021/12/17 15:45:11;;;;;;;6.07;2.33;;;15.40;99.90;;;;;;5073409;28;20059;-61
2021/12/17 15:47:37;;;;;;;5.30;2.45;;;;;;;;;;5071744;28;20504;-62
2021/12/17 15:50:07;;;;;;;5.57;2.22;;;15.30;99.90;;;;;;5073543;28;20054;-62
2021/12/17 15:52:48;;;;;;;4.85;2.40;;;15.20;99.90;;;;;;5073166;28;20051;-61
2021/12/17 15:55:15;;;;;;;6.40;2.50;;;14.80;99.90;;;;;;5072590;28;20051;-64
2021/12/17 15:57:42;;;;;;;4.53;2.15;;;15.20;99.90;;;;;;5074527;28;20587;-62
2021/12/17 16:00:08;;;;;;;7.03;2.80;;;15.20;99.90;;;;;;5073425;28;20041;-61
2021/12/17 16:02:35;;;;;;;5.88;2.78;;;15.10;99.90;;;;;;5073897;28;20097;-62
2021/12/17 16:05:02;;;;;;;4.97;2.50;;;15.20;99.90;;;;;;5073157;28;20048;-67
2021/12/17 16:07:28;;;;;;;5.80;2.17;;;15.40;99.90;;;;;;5074712;28;20454;-64
2021/12/17 16:23:01;;;;;;;5.68;2.35;;;15.20;99.90;;;;;;5072895;28;20041;-64
2021/12/17 16:25:27;;;;;;;5.07;2.40;;;;;;;;;;5072570;28;20043;-65
2021/12/17 16:27:53;;;;;;;5.05;2.28;;;14.90;99.90;;;;;;5073490;28;20131;-61
2021/12/17 16:30:19;;;;;;;5.28;2.30;;;14.90;99.90;;;;;;5073736;28;20217;-69
2021/12/17 16:32:45;;;;;;;5.50;2.30;;;15.10;99.90;;;;;;5073107;28;20044;-70
2021/12/17 16:35:11;;;;;;;4.40;2.20;;;15.20;99.90;;;;;;5073304;28;20055;-68
2021/12/17 16:37:36;;;;;;;3.80;1.95;;;15.00;99.90;;;;;;5072953;28;20378;-69
2021/12/17 16:40:03;;;;;;;4.95;2.40;;;15.20;99.90;;;;;;5060814;28;20056;-69
2021/12/17 16:42:29;;;;;;;4.38;2.33;;;15.10;99.90;;;;;;5035795;28;20045;-69
2021/12/17 16:47:28;;;;;;;5.60;2.30;;;;;;;;;;5072708;28;20044;-69
2021/12/17 16:49:54;;;;;;;4.53;2.00;;;15.00;99.90;;;;;;5073821;28;20094;-69